Time;durP1;ratioP1;P1;durP2;ratioP2;P2;SDS_P1;SDS_P2;PMS_P1;PMS_P2;Temp;Humidity;BMP_temperature;BMP_pressure;BME280_temperature;BME280_humidity;BME280_pressure;Samples;Min_cycle;Max_cycle;Signal;HPM_P1;HPM_P2
2021/06/28 00:00:54;;;;;;;5.90;3.30;;;;;;;;;;5011855;28;20029;-70
2021/06/28 00:03:20;;;;;;;7.47;3.43;;;;;;;;;;5011479;28;20108;-70
2021/06/28 00:05:46;;;;;;;7.40;3.40;;;;;;;;;;5012389;28;20109;-70
2021/06/28 00:08:11;;;;;;;5.97;3.20;;;;;;;;;;5012208;28;20076;-70
2021/06/28 00:10:37;;;;;;;7.40;3.70;;;;;;;;;;5012558;28;20475;-70
2021/06/28 00:13:02;;;;;;;8.03;3.50;;;;;;;;;;5011709;28;20387;-70
2021/06/28 00:15:29;;;;;;;9.90;3.77;;;;;;;;;;5011961;28;20151;-70
2021/06/28 00:17:55;;;;;;;6.77;3.40;;;;;;;;;;5012087;28;20032;-70
2021/06/28 00:20:20;;;;;;;6.30;3.37;;;;;;;;;;5011907;28;20092;-70
2021/06/28 00:22:46;;;;;;;6.57;3.40;;;;;;;;;;5010241;28;20037;-70
2021/06/28 00:25:12;;;;;;;7.53;3.87;;;;;;;;;;5011346;28;20052;-70
2021/06/28 00:27:38;;;;;;;7.03;3.63;;;;;;;;;;5011251;28;20029;-70
2021/06/28 00:30:05;;;;;;;8.43;3.63;;;;;;;;;;5011234;28;20021;-70
2021/06/28 00:32:31;;;;;;;6.80;3.53;;;;;;;;;;5010937;28;20056;-70
2021/06/28 00:34:56;;;;;;;7.30;3.50;;;;;;;;;;5011662;28;20028;-70
2021/06/28 00:37:21;;;;;;;7.70;3.97;;;;;;;;;;5011613;28;20141;-70
2021/06/28 00:39:46;;;;;;;8.43;3.93;;;;;;;;;;5011472;28;20406;-70
2021/06/28 00:42:12;;;;;;;8.27;3.50;;;;;;;;;;5011570;28;20471;-70
2021/06/28 00:44:37;;;;;;;7.70;3.80;;;;;;;;;;5011067;28;20045;-70
2021/06/28 00:47:03;;;;;;;7.00;3.73;;;;;;;;;;5012134;28;20433;-70
2021/06/28 00:49:28;;;;;;;7.37;3.50;;;;;;;;;;5011305;28;20574;-70
2021/06/28 00:51:56;;;;;;;8.90;4.07;;;;;;;;;;5011779;28;20018;-70
2021/06/28 00:54:21;;;;;;;8.60;4.13;;;;;;;;;;5011350;28;20030;-70
2021/06/28 00:56:47;;;;;;;7.73;4.03;;;;;;;;;;5006408;28;20023;-70
2021/06/28 00:59:14;;;;;;;7.80;3.90;;;;;;;;;;5009512;28;20467;-70
2021/06/28 01:01:40;;;;;;;7.77;4.10;;;;;;;;;;5012014;28;20030;-69
2021/06/28 01:04:05;;;;;;;8.53;4.23;;;;;;;;;;5008525;28;20561;-69
2021/06/28 01:06:30;;;;;;;9.60;4.60;;;;;;;;;;5011844;28;20022;-69
2021/06/28 01:08:55;;;;;;;7.67;3.90;;;;;;;;;;5010060;28;20034;-69
2021/06/28 01:11:21;;;;;;;7.63;4.10;;;;;;;;;;5009684;28;20088;-69
2021/06/28 01:13:47;;;;;;;7.43;4.30;;;;;;;;;;5011082;28;20058;-69
2021/06/28 01:16:12;;;;;;;7.63;4.23;;;;;;;;;;5011729;28;20041;-69
2021/06/28 01:18:41;;;;;;;7.63;3.83;;;;;;;;;;2818483;22;21572;-72
2021/06/28 01:21:10;;;;;;;8.83;3.60;;;;;;;;;;5030990;28;20447;-70
2021/06/28 01:23:35;;;;;;;7.90;4.10;;;;;;;;;;5031269;28;20025;-73
2021/06/28 01:26:07;;;;;;;11.57;5.17;;;;;;;;;;5030800;28;20034;-73
2021/06/28 01:28:35;;;;;;;8.15;3.97;;;;;;;;;;5031265;28;20477;-73
2021/06/28 01:31:01;;;;;;;9.73;4.50;;;;;;;;;;5031200;28;20465;-73
2021/06/28 01:33:27;;;;;;;8.00;3.73;;;;;;;;;;5030423;28;20025;-73
2021/06/28 01:35:52;;;;;;;8.10;4.10;;;;;;;;;;5030768;28;20021;-73
2021/06/28 01:38:18;;;;;;;8.20;4.27;;;;;;;;;;5030523;28;20029;-73
2021/06/28 01:40:43;;;;;;;8.57;4.37;;;;;;;;;;5030991;28;20086;-73
2021/06/28 01:43:09;;;;;;;8.57;4.60;;;;;;;;;;5031254;28;20033;-73
2021/06/28 01:45:35;;;;;;;7.80;4.27;;;;;;;;;;5034889;28;20028;-73
2021/06/28 01:48:00;;;;;;;10.10;5.17;;;;;;;;;;5034002;28;20392;-73
2021/06/28 01:50:27;;;;;;;9.03;5.00;;;;;;;;;;5034353;28;20097;-73
2021/06/28 01:52:52;;;;;;;10.90;4.70;;;;;;;;;;5033876;28;20539;-73
2021/06/28 01:55:18;;;;;;;9.37;5.00;;;;;;;;;;5033636;28;20100;-73
2021/06/28 01:57:52;;;;;;;8.53;4.40;;;;;;;;;;5034292;28;20021;-73
2021/06/28 02:00:18;;;;;;;7.97;4.37;;;;;;;;;;5034302;28;20026;-73
2021/06/28 02:03:03;;;;;;;10.10;4.57;;;;;;;;;;5033587;28;20033;-73
2021/06/28 02:05:29;;;;;;;8.70;4.43;;;;;;;;;;5034191;28;20413;-73
2021/06/28 02:07:54;;;;;;;8.37;4.70;;;;;;;;;;5033076;28;20040;-73
2021/06/28 02:10:20;;;;;;;8.50;4.60;;;;;;;;;;5033437;28;20025;-70
2021/06/28 02:12:45;;;;;;;14.47;4.63;;;;;;;;;;5034019;28;20040;-70
2021/06/28 02:15:21;;;;;;;9.27;4.67;;;;;;;;;;5034151;28;20026;-70
2021/06/28 02:17:46;;;;;;;10.27;4.97;;;;;;;;;;5034182;28;20036;-70
2021/06/28 02:20:12;;;;;;;10.80;5.40;;;;;;;;;;5035301;28;20034;-70
2021/06/28 02:22:37;;;;;;;9.60;4.93;;;;;;;;;;5034824;28;20036;-70
2021/06/28 02:25:04;;;;;;;10.37;5.30;;;;;;;;;;5034594;28;20025;-70
2021/06/28 02:27:29;;;;;;;10.23;5.33;;;;;;;;;;5034020;28;20052;-70
2021/06/28 02:29:55;;;;;;;11.10;5.27;;;;;;;;;;5034624;28;20022;-70
2021/06/28 02:32:20;;;;;;;8.40;4.97;;;;;;;;;;5033802;28;20036;-70
2021/06/28 02:34:45;;;;;;;10.63;5.40;;;;;;;;;;5034084;28;20033;-70
2021/06/28 02:37:10;;;;;;;12.70;5.53;;;;;;;;;;5034379;28;20021;-70
2021/06/28 02:39:36;;;;;;;9.40;4.80;;;;;;;;;;5034001;28;20056;-70
2021/06/28 02:42:02;;;;;;;10.63;5.27;;;;;;;;;;5034394;28;20021;-70
2021/06/28 02:44:27;;;;;;;10.27;5.10;;;;;;;;;;5033594;28;20030;-70
2021/06/28 02:46:52;;;;;;;10.10;5.07;;;;;;;;;;5034393;28;20071;-70
2021/06/28 02:49:18;;;;;;;9.27;4.97;;;;;;;;;;5033524;28;20048;-70
2021/06/28 02:51:43;;;;;;;9.50;4.70;;;;;;;;;;5034516;28;20029;-70
2021/06/28 02:54:08;;;;;;;11.97;4.77;;;;;;;;;;5033493;28;20405;-70
2021/06/28 02:56:34;;;;;;;13.10;5.23;;;;;;;;;;5033494;28;20033;-70
2021/06/28 02:58:59;;;;;;;10.30;4.83;;;;;;;;;;5033390;28;20025;-70
2021/06/28 03:01:25;;;;;;;11.53;5.70;;;;;;;;;;5034310;28;20079;-73
2021/06/28 03:03:51;;;;;;;9.97;4.97;;;;;;;;;;5033648;28;20101;-73
2021/06/28 03:06:16;;;;;;;11.03;5.63;;;;;;;;;;5033835;28;20061;-73
2021/06/28 03:08:43;;;;;;;12.80;5.50;;;;;;;;;;5033682;28;20029;-73
2021/06/28 03:11:08;;;;;;;10.53;5.40;;;;;;;;;;5033686;28;20028;-74
2021/06/28 03:13:34;;;;;;;9.97;5.30;;;;;;;;;;5033428;28;20026;-74
2021/06/28 03:15:59;;;;;;;10.20;5.27;;;;;;;;;;5033652;28;20021;-74
2021/06/28 03:18:25;;;;;;;10.20;5.23;;;;;;;;;;5033062;28;20018;-73
2021/06/28 03:20:51;;;;;;;12.10;5.13;;;;;;;;;;5033265;28;20126;-73
2021/06/28 03:23:16;;;;;;;10.73;5.83;;;;;;;;;;5032944;28;20022;-73
2021/06/28 03:25:42;;;;;;;10.23;5.20;;;;;;;;;;5033168;28;20040;-73
2021/06/28 03:28:07;;;;;;;9.80;5.50;;;;;;;;;;5033167;28;20030;-73
2021/06/28 03:30:32;;;;;;;10.07;5.37;;;;;;;;;;5033925;28;20354;-73
2021/06/28 03:32:58;;;;;;;11.00;5.27;;;;;;;;;;5032994;28;20465;-73
2021/06/28 03:35:23;;;;;;;10.40;5.30;;;;;;;;;;5033601;28;20358;-73
2021/06/28 03:37:48;;;;;;;10.10;5.40;;;;;;;;;;5033282;28;20030;-73
2021/06/28 03:40:14;;;;;;;10.50;5.40;;;;;;;;;;5033439;28;20355;-73
2021/06/28 03:42:40;;;;;;;13.87;5.73;;;;;;;;;;5033119;28;20040;-73
2021/06/28 03:45:06;;;;;;;10.83;5.20;;;;;;;;;;5033190;28;20025;-73
2021/06/28 03:47:32;;;;;;;11.77;5.13;;;;;;;;;;5032347;28;20030;-73
2021/06/28 03:49:57;;;;;;;10.73;5.27;;;;;;;;;;5033105;28;20032;-73
2021/06/28 03:52:22;;;;;;;11.60;5.67;;;;;;;;;;5032491;28;20060;-73
2021/06/28 03:54:48;;;;;;;11.10;5.07;;;;;;;;;;5032444;28;20022;-73
2021/06/28 03:57:13;;;;;;;12.07;5.60;;;;;;;;;;5033086;28;20018;-73
2021/06/28 03:59:38;;;;;;;11.73;5.80;;;;;;;;;;5033143;28;20147;-73
2021/06/28 04:02:04;;;;;;;11.77;4.87;;;;;;;;;;5032361;28;20406;-73
2021/06/28 04:04:29;;;;;;;9.63;5.00;;;;;;;;;;5032883;28;20550;-73
2021/06/28 04:06:55;;;;;;;9.73;4.80;;;;;;;;;;5032439;28;20450;-74
2021/06/28 04:09:20;;;;;;;9.33;5.27;;;;;;;;;;5031836;28;20025;-74
2021/06/28 04:11:45;;;;;;;9.03;4.83;;;;;;;;;;5032411;28;20040;-73
2021/06/28 04:14:13;;;;;;;10.37;5.10;;;;;;;;;;5032275;28;20022;-73
2021/06/28 04:16:38;;;;;;;11.00;5.40;;;;;;;;;;5032540;28;20097;-73
2021/06/28 04:19:03;;;;;;;10.70;5.27;;;;;;;;;;5031433;28;20128;-73
2021/06/28 04:21:30;;;;;;;12.53;5.10;;;;;;;;;;5032767;28;20033;-73
2021/06/28 04:23:55;;;;;;;11.40;5.43;;;;;;;;;;5031989;28;20025;-73
2021/06/28 04:26:21;;;;;;;11.80;5.67;;;;;;;;;;5032412;28;20105;-73
2021/06/28 04:28:46;;;;;;;9.33;5.20;;;;;;;;;;5026622;28;20533;-73
2021/06/28 04:31:11;;;;;;;12.13;5.30;;;;;;;;;;5032722;28;20329;-73
2021/06/28 04:33:37;;;;;;;10.37;5.40;;;;;;;;;;5032205;28;20032;-73
2021/06/28 04:36:02;;;;;;;11.30;5.50;;;;;;;;;;5032915;28;20038;-73
2021/06/28 04:38:27;;;;;;;10.43;5.57;;;;;;;;;;5031939;28;20029;-73
2021/06/28 04:40:53;;;;;;;9.53;5.37;;;;;;;;;;5032346;28;20021;-73
2021/06/28 04:43:18;;;;;;;10.43;5.10;;;;;;;;;;5031621;28;20040;-73
2021/06/28 04:45:43;;;;;;;10.40;5.07;;;;;;;;;;5032376;28;20030;-73
2021/06/28 04:48:09;;;;;;;10.17;5.33;;;;;;;;;;5032124;28;20030;-73
2021/06/28 04:50:34;;;;;;;8.63;4.83;;;;;;;;;;5032778;28;20021;-73
2021/06/28 04:52:59;;;;;;;11.73;5.53;;;;;;;;;;5032269;28;20474;-74
2021/06/28 04:55:25;;;;;;;9.93;5.37;;;;;;;;;;5031832;28;20022;-73
2021/06/28 04:57:51;;;;;;;8.93;5.13;;;;;;;;;;5031090;28;20032;-73
2021/06/28 05:00:18;;;;;;;11.67;5.40;;;;;;;;;;5032534;28;20028;-73
2021/06/28 05:02:44;;;;;;;9.17;5.10;;;;;;;;;;5030161;28;20029;-73
2021/06/28 05:05:10;;;;;;;11.07;5.03;;;;;;;;;;5032549;28;20083;-73
2021/06/28 05:07:35;;;;;;;9.60;5.60;;;;;;;;;;5031906;28;20113;-73
2021/06/28 05:10:00;;;;;;;13.97;5.27;;;;;;;;;;5032384;28;20017;-73
2021/06/28 05:12:26;;;;;;;10.90;5.47;;;;;;;;;;5031527;28;20032;-73
2021/06/28 05:14:51;;;;;;;11.53;6.07;;;;;;;;;;5032580;28;20468;-73
2021/06/28 05:17:16;;;;;;;10.33;5.67;;;;;;;;;;5032210;28;20513;-73
2021/06/28 05:19:45;;;;;;;12.10;6.20;;;;;;;;;;5035653;28;20053;-73
2021/06/28 05:22:10;;;;;;;12.73;6.23;;;;;;;;;;5035431;28;20029;-73
2021/06/28 05:24:35;;;;;;;13.37;5.80;;;;;;;;;;5036153;28;20033;-73
2021/06/28 05:27:01;;;;;;;12.27;6.47;;;;;;;;;;5036217;28;20032;-73
2021/06/28 05:29:30;;;;;;;11.73;5.73;;;;;;;;;;5035269;28;20039;-73
2021/06/28 05:31:55;;;;;;;13.30;6.17;;;;;;;;;;5035659;28;20068;-73
2021/06/28 05:34:21;;;;;;;12.07;6.33;;;;;;;;;;5035799;28;20457;-74
2021/06/28 05:36:46;;;;;;;14.70;6.57;;;;;;;;;;5035928;28;20026;-74
2021/06/28 05:39:11;;;;;;;12.27;6.37;;;;;;;;;;5035591;28;20021;-73
2021/06/28 05:41:37;;;;;;;12.90;6.67;;;;;;;;;;5035886;28;20377;-73
2021/06/28 05:44:02;;;;;;;13.23;5.80;;;;;;;;;;5035871;28;20026;-73
2021/06/28 05:46:28;;;;;;;9.17;5.30;;;;;;;;;;5035535;28;20029;-74
2021/06/28 05:48:53;;;;;;;12.37;5.87;;;;;;;;;;5034123;28;20541;-74
2021/06/28 05:51:19;;;;;;;11.57;6.13;;;;;;;;;;5035450;28;20462;-74
2021/06/28 05:53:45;;;;;;;11.80;6.20;;;;;;;;;;5034119;28;20021;-74
2021/06/28 05:56:10;;;;;;;13.63;6.07;;;;;;;;;;5034885;28;20032;-74
2021/06/28 05:58:36;;;;;;;10.70;6.00;;;;;;;;;;5034887;28;20018;-74
2021/06/28 06:01:01;;;;;;;10.37;5.67;;;;;;;;;;5035643;28;20021;-74
2021/06/28 06:03:27;;;;;;;12.10;5.83;;;;;;;;;;5033874;28;20083;-74
2021/06/28 06:05:53;;;;;;;10.60;6.23;;;;;;;;;;5035300;28;20021;-74
2021/06/28 06:08:23;;;;;;;11.53;6.03;;;;;;;;;;5034959;28;20025;-74
2021/06/28 06:10:48;;;;;;;14.43;6.47;;;;;;;;;;5025904;28;20448;-74
2021/06/28 06:13:14;;;;;;;12.33;6.17;;;;;;;;;;5034195;28;20017;-74
2021/06/28 06:15:39;;;;;;;11.77;6.00;;;;;;;;;;5034971;28;20018;-74
2021/06/28 06:18:04;;;;;;;13.53;5.90;;;;;;;;;;5034703;28;20088;-74
2021/06/28 06:20:31;;;;;;;12.80;6.33;;;;;;;;;;5034672;28;20069;-74
2021/06/28 06:22:56;;;;;;;11.00;6.13;;;;;;;;;;5034884;28;20056;-74
2021/06/28 06:25:22;;;;;;;14.47;6.17;;;;;;;;;;5035127;28;20486;-74
2021/06/28 06:27:47;;;;;;;11.13;6.13;;;;;;;;;;5034255;28;20049;-74
2021/06/28 06:30:13;;;;;;;14.23;6.17;;;;;;;;;;5029134;28;20029;-74
2021/06/28 06:32:38;;;;;;;13.13;6.20;;;;;;;;;;5034582;28;20032;-74
2021/06/28 06:35:04;;;;;;;15.40;6.20;;;;;;;;;;5034945;28;20507;-73
2021/06/28 06:37:31;;;;;;;10.50;6.00;;;;;;;;;;5034622;28;20105;-74
2021/06/28 06:39:56;;;;;;;10.77;6.00;;;;;;;;;;5034540;28;20025;-74
2021/06/28 06:42:21;;;;;;;10.73;5.80;;;;;;;;;;5034713;28;20029;-74
2021/06/28 06:44:47;;;;;;;10.48;6.00;;;;;;;;;;5034483;28;20357;-73
2021/06/28 06:47:12;;;;;;;10.55;5.88;;;;;;;;;;5034952;28;20013;-73
2021/06/28 06:49:37;;;;;;;13.40;5.70;;;;;;;;;;5034663;28;20103;-73
2021/06/28 06:52:05;;;;;;;14.73;5.78;;;;;;;;;;5034693;28;20036;-73
2021/06/28 06:54:31;;;;;;;9.68;5.70;;;;;;;;;;5034858;28;20021;-74
2021/06/28 06:56:56;;;;;;;9.40;4.90;;;;;;;;;;5033786;28;20028;-74
2021/06/28 06:59:21;;;;;;;11.85;5.78;;;;;;;;;;5030416;28;20140;-73
2021/06/28 07:01:47;;;;;;;10.25;5.22;;;;;;;;;;5034361;28;20053;-73
2021/06/28 07:04:14;;;;;;;12.43;5.28;;;;;;;;;;5033431;28;20118;-73
2021/06/28 07:06:40;;;;;;;9.05;5.28;;;;;;;;;;5033945;28;20024;-73
2021/06/28 07:09:05;;;;;;;10.93;4.55;;;;;;;;;;5032878;28;20048;-73
2021/06/28 07:11:30;;;;;;;8.00;4.57;;;;;;;;;;5033294;28;20026;-73
2021/06/28 07:13:57;;;;;;;11.45;4.68;;;;;;;;;;5033383;28;20125;-73
2021/06/28 07:16:25;;;;;;;7.00;4.45;;;;;;;;;;5033339;28;20032;-73
2021/06/28 07:18:51;;;;;;;7.18;4.57;;;;;;;;;;5032940;28;20041;-73
2021/06/28 07:21:16;;;;;;;8.05;4.57;;;;;;;;;;5033328;28;20075;-73
2021/06/28 07:23:41;;;;;;;7.95;4.07;;;;;;;;;;5033144;28;20539;-73
2021/06/28 07:26:07;;;;;;;6.90;4.15;;;;;;;;;;5033477;28;20029;-73
2021/06/28 07:28:33;;;;;;;7.88;4.63;;;;;;;;;;5032712;28;20052;-73
2021/06/28 07:30:59;;;;;;;9.32;4.70;;;;;;;;;;5033575;28;20052;-73
2021/06/28 07:33:25;;;;;;;8.82;4.57;;;;;;;;;;5032783;28;20053;-73
2021/06/28 07:35:50;;;;;;;10.95;4.65;;;;;;;;;;5033329;28;20022;-74
2021/06/28 07:38:16;;;;;;;10.20;4.43;;;;;;;;;;5033663;28;20071;-74
2021/06/28 07:40:44;;;;;;;8.05;4.65;;;;;;;;;;5033277;28;20021;-74
2021/06/28 07:43:09;;;;;;;7.80;4.55;;;;;;;;;;5033732;28;20108;-73
2021/06/28 07:45:34;;;;;;;8.15;4.45;;;;;;;;;;5032824;28;20109;-73
2021/06/28 07:48:01;;;;;;;8.20;4.22;;;;;;;;;;5035757;28;20040;-73
2021/06/28 07:50:29;;;;;;;7.15;4.10;;;;;;;;;;5036985;28;20028;-73
2021/06/28 07:52:54;;;;;;;8.40;4.18;;;;;;;;;;5034608;28;20116;-72
2021/06/28 07:55:19;;;;;;;6.53;3.92;;;;;;;;;;5032924;28;20092;-73
2021/06/28 07:57:45;;;;;;;6.28;3.58;;;;;;;;;;5033076;28;20026;-72
2021/06/28 08:00:12;;;;;;;10.80;4.10;;;;;;;;;;5033394;28;20492;-72
2021/06/28 08:02:40;;;;;;;8.00;4.18;;;;;;;;;;5032424;28;20030;-73
2021/06/28 08:05:06;;;;;;;7.50;3.78;;;;;;;;;;5032799;28;20052;-73
2021/06/28 08:07:31;;;;;;;6.55;3.60;;;;;;;;;;5033943;28;20033;-73
2021/06/28 08:09:57;;;;;;;8.93;3.83;;;;;;;;;;5036549;28;20342;-72
2021/06/28 08:12:22;;;;;;;7.20;3.53;;;;;;;;;;5034346;28;20029;-73
2021/06/28 08:14:47;;;;;;;5.32;3.22;;;;;;;;;;5032577;28;20036;-73
2021/06/28 08:17:13;;;;;;;5.57;3.33;;;;;;;;;;5032696;28;20499;-73
2021/06/28 08:19:38;;;;;;;6.57;3.40;;;;;;;;;;5032340;28;20472;-73
2021/06/28 08:22:04;;;;;;;7.45;3.28;;;;;;;;;;5032582;28;20032;-73
2021/06/28 08:24:29;;;;;;;7.72;3.33;;;;;;;;;;5032750;28;20057;-73
2021/06/28 08:26:54;;;;;;;16.55;3.55;;;;;;;;;;5032495;28;20071;-73
2021/06/28 08:29:20;;;;;;;6.85;3.10;;;;;;;;;;5032646;28;20108;-73
2021/06/28 08:31:45;;;;;;;6.18;3.00;;;;;;;;;;5033297;28;20472;-73
2021/06/28 08:34:12;;;;;;;6.80;3.40;;;;;;;;;;5032978;28;20516;-73
2021/06/28 08:36:39;;;;;;;6.65;3.20;;;;;;;;;;5032429;28;20018;-73
2021/06/28 08:39:04;;;;;;;7.10;2.95;;;;;;;;;;5032707;28;20108;-73
2021/06/28 08:41:30;;;;;;;6.30;3.42;;;;;;;;;;5032718;28;20051;-73
2021/06/28 08:43:55;;;;;;;7.93;3.10;;;;;;;;;;5032570;28;20036;-73
2021/06/28 08:46:21;;;;;;;8.18;3.55;;;;;;;;;;5032208;28;20025;-73
2021/06/28 08:48:47;;;;;;;5.93;2.90;;;;;;;;;;5032583;28;20021;-73
2021/06/28 08:51:14;;;;;;;4.90;3.10;;;;;;;;;;5032815;28;20507;-73
2021/06/28 08:53:39;;;;;;;4.90;3.03;;;;;;;;;;5034236;28;20091;-73
2021/06/28 08:56:09;;;;;;;4.85;3.03;;;;;;;;;;5036510;28;20022;-73
2021/06/28 08:58:35;;;;;;;5.57;3.10;;;;;;;;;;5036155;28;20481;-74
2021/06/28 09:01:00;;;;;;;5.68;3.03;;;;;;;;;;5035643;28;20112;-74
2021/06/28 09:03:25;;;;;;;5.60;2.92;;;;;;;;;;5035680;28;20021;-74
2021/06/28 09:05:52;;;;;;;4.65;2.65;;;;;;;;;;5036528;28;20098;-74
2021/06/28 09:08:19;;;;;;;4.97;2.95;;;;;;;;;;5035512;28;20076;-74
2021/06/28 09:10:44;;;;;;;5.28;2.50;;;;;;;;;;5036435;28;20515;-74
2021/06/28 09:13:10;;;;;;;4.95;2.72;;;;;;;;;;5035226;28;20035;-74
2021/06/28 09:15:39;;;;;;;4.90;2.80;;;;;;;;;;5035697;28;20043;-73
2021/06/28 09:18:21;;;;;;;3.92;2.42;;;;;;;;;;5035372;28;20465;-73
2021/06/28 09:20:47;;;;;;;4.28;2.60;;;;;;;;;;5034967;28;20480;-73
2021/06/28 09:23:31;;;;;;;6.10;2.50;;;;;;;;;;5036062;28;20428;-73
2021/06/28 09:25:58;;;;;;;4.60;2.53;;;;;;;;;;5024449;28;20025;-73
2021/06/28 09:28:37;;;;;;;4.72;2.83;;;;;;;;;;5035125;28;20017;-74
2021/06/28 09:31:06;;;;;;;4.10;2.40;;;;;;;;;;5036035;28;20365;-74
2021/06/28 09:33:31;;;;;;;3.55;2.10;;;;;;;;;;5035420;28;20029;-74
2021/06/28 09:35:57;;;;;;;6.00;2.40;;;;;;;;;;5036500;28;20040;-74
2021/06/28 09:38:39;;;;;;;4.68;2.33;;;;;;;;;;5035077;28;20026;-74
2021/06/28 09:41:23;;;;;;;3.75;2.00;;;;;;;;;;5028492;28;20421;-74
2021/06/28 09:43:48;;;;;;;4.45;2.22;;;;;;;;;;5029769;28;20028;-74
2021/06/28 09:46:18;;;;;;;5.00;2.60;;;;;;;;;;5035923;28;20103;-74
2021/06/28 09:48:51;;;;;;;3.75;2.20;;;;;;;;;;5034538;28;20025;-74
2021/06/28 09:51:21;;;;;;;4.47;2.65;;;;;;;;;;5035552;28;20442;-74
2021/06/28 09:54:15;;;;;;;4.60;2.58;;;;;;;;;;5033422;28;20021;-74
2021/06/28 09:56:50;;;;;;;7.60;2.80;;;;;;;;;;4967350;28;20058;-74
2021/06/28 09:59:38;;;;;;;4.22;2.50;;;;;;;;;;4970001;28;20049;-74
2021/06/28 10:02:33;;;;;;;4.55;2.88;;;;;;;;;;4960873;28;20470;-74
2021/06/28 10:07:44;;;;;;;4.50;2.72;;;;;;;;;;4971995;28;20510;-74
2021/06/28 10:10:11;;;;;;;3.83;2.30;;;;;;;;;;4970965;28;20031;-74
2021/06/28 10:12:37;;;;;;;5.45;2.55;;;;;;;;;;4970545;28;20105;-74
2021/06/28 10:15:08;;;;;;;4.40;2.50;;;;;;;;;;4967232;28;20031;-74
2021/06/28 10:17:34;;;;;;;4.38;2.60;;;;;;;;;;4973371;28;20492;-74
2021/06/28 10:20:00;;;;;;;4.22;2.60;;;;;;;;;;4971071;28;20102;-74
2021/06/28 10:22:25;;;;;;;6.57;2.40;;;;;;;;;;4973092;28;20210;-74
2021/06/28 10:24:51;;;;;;;3.63;2.25;;;;;;;;;;4973850;28;20963;-74
2021/06/28 10:27:16;;;;;;;4.32;2.40;;;;;;;;;;4971682;28;20357;-74
2021/06/28 10:29:42;;;;;;;4.45;2.60;;;;;;;;;;4966816;28;20118;-75
2021/06/28 10:32:09;;;;;;;7.00;2.20;;;;;;;;;;4975130;28;20022;-75
2021/06/28 10:34:35;;;;;;;4.20;2.35;;;;;;;;;;5034902;28;20029;-75
2021/06/28 10:37:02;;;;;;;8.13;2.30;;;;;;;;;;5034865;28;20021;-74
2021/06/28 10:39:31;;;;;;;5.13;2.70;;;;;;;;;;5034280;28;20033;-75
2021/06/28 10:41:59;;;;;;;4.90;2.20;;;;;;;;;;5034912;28;20462;-75
2021/06/28 10:44:26;;;;;;;3.95;2.22;;;;;;;;;;5034102;28;20021;-74
2021/06/28 10:46:58;;;;;;;5.43;2.50;;;;;;;;;;5033995;28;20408;-74
2021/06/28 10:49:42;;;;;;;3.97;2.05;;;;;;;;;;5033774;28;20021;-75
2021/06/28 10:52:08;;;;;;;5.15;2.08;;;;;;;;;;5032717;28;20029;-75
2021/06/28 10:54:35;;;;;;;3.75;2.10;;;;;;;;;;5033881;28;20532;-75
2021/06/28 10:57:01;;;;;;;3.95;2.17;;;;;;;;;;5033762;28;20022;-75
2021/06/28 10:59:31;;;;;;;4.53;2.13;;;;;;;;;;5033600;28;20045;-75
2021/06/28 11:01:58;;;;;;;7.07;2.33;;;;;;;;;;5031721;28;20049;-75
2021/06/28 11:04:29;;;;;;;4.25;2.20;;;;;;;;;;5031505;28;20100;-75
2021/06/28 11:07:02;;;;;;;3.40;1.90;;;;;;;;;;5034030;28;20319;-75
2021/06/28 11:09:49;;;;;;;3.42;2.03;;;;;;;;;;5033433;28;20074;-75
2021/06/28 11:12:25;;;;;;;4.00;2.10;;;;;;;;;;5029685;28;20128;-74
2021/06/28 11:15:00;;;;;;;3.33;1.95;;;;;;;;;;5033059;28;20032;-74
2021/06/28 11:17:39;;;;;;;4.70;2.15;;;;;;;;;;5033027;28;20025;-74
2021/06/28 11:20:06;;;;;;;3.08;1.80;;;;;;;;;;5031591;28;20521;-74
2021/06/28 11:22:42;;;;;;;3.50;2.08;;;;;;;;;;5028644;28;20025;-73
2021/06/28 11:25:18;;;;;;;4.60;2.28;;;;;;;;;;5024303;28;20108;-73
2021/06/28 11:27:48;;;;;;;4.50;1.92;;;;;;;;;;5033295;28;20076;-73
2021/06/28 11:30:19;;;;;;;3.05;1.90;;;;;;;;;;5033473;28;20053;-74
2021/06/28 11:32:58;;;;;;;5.10;1.90;;;;;;;;;;5032606;28;20111;-73
2021/06/28 11:35:42;;;;;;;3.67;2.30;;;;;;;;;;5033009;28;20048;-74
2021/06/28 11:38:11;;;;;;;4.00;2.13;;;;;;;;;;5022370;28;20025;-74
2021/06/28 11:40:40;;;;;;;2.85;1.70;;;;;;;;;;5033100;28;20033;-74
2021/06/28 11:43:06;;;;;;;4.28;1.90;;;;;;;;;;5021161;28;20075;-74
2021/06/28 11:45:50;;;;;;;4.10;1.73;;;;;;;;;;5032088;28;20025;-73
2021/06/28 11:48:35;;;;;;;3.47;1.90;;;;;;;;;;5028543;28;20096;-73
2021/06/28 11:51:10;;;;;;;4.45;2.15;;;;;;;;;;5030362;28;20033;-74
2021/06/28 11:53:35;;;;;;;3.22;1.88;;;;;;;;;;5032167;28;20025;-74
2021/06/28 11:56:00;;;;;;;4.28;1.95;;;;;;;;;;5031880;28;20037;-74
2021/06/28 11:58:26;;;;;;;4.95;2.20;;;;;;;;;;5032249;28;20018;-74
2021/06/28 12:01:04;;;;;;;3.85;1.90;;;;;;;;;;5032791;28;20033;-74
2021/06/28 12:03:36;;;;;;;3.00;1.77;;;;;;;;;;5031782;28;20045;-74
2021/06/28 12:06:06;;;;;;;3.90;2.00;;;;;;;;;;5033066;28;20449;-73
2021/06/28 12:08:31;;;;;;;3.08;1.80;;;;;;;;;;5032917;28;20022;-73
2021/06/28 12:10:57;;;;;;;5.43;1.70;;;;;;;;;;5032974;28;20036;-73
2021/06/28 12:13:34;;;;;;;3.72;1.90;;;;;;;;;;5032513;28;20040;-73
2021/06/28 12:16:12;;;;;;;6.88;2.00;;;;;;;;;;5032200;28;20108;-73
2021/06/28 12:18:37;;;;;;;3.58;1.80;;;;;;;;;;5031941;28;20437;-74
2021/06/28 12:21:03;;;;;;;3.50;2.10;;;;;;;;;;5031710;28;20021;-74
2021/06/28 12:23:28;;;;;;;4.68;2.10;;;;;;;;;;5030834;28;20033;-73
2021/06/28 12:25:54;;;;;;;3.85;2.15;;;;;;;;;;5031224;28;20017;-72
2021/06/28 12:28:31;;;;;;;3.28;2.10;;;;;;;;;;5030500;28;20033;-72
2021/06/28 12:30:56;;;;;;;3.70;1.98;;;;;;;;;;5031074;28;20026;-72
2021/06/28 12:33:22;;;;;;;4.10;1.95;;;;;;;;;;5030776;28;20100;-72
2021/06/28 12:35:56;;;;;;;3.85;2.10;;;;;;;;;;5031405;28;20028;-72
2021/06/28 12:38:21;;;;;;;5.18;2.20;;;;;;;;;;5030501;28;20048;-71
2021/06/28 12:40:47;;;;;;;4.50;2.15;;;;;;;;;;5031761;28;20092;-71
2021/06/28 12:43:15;;;;;;;4.30;2.28;;;;;;;;;;5030299;28;20022;-71
2021/06/28 12:45:44;;;;;;;4.28;2.13;;;;;;;;;;5031526;28;20033;-71
2021/06/28 12:48:14;;;;;;;3.72;2.00;;;;;;;;;;5030489;28;20013;-71
2021/06/28 12:50:39;;;;;;;3.28;2.00;;;;;;;;;;5025745;28;20108;-72
2021/06/28 12:53:11;;;;;;;3.85;2.10;;;;;;;;;;5030982;28;20448;-74
2021/06/28 12:55:37;;;;;;;3.53;1.90;;;;;;;;;;5030830;28;20013;-74
2021/06/28 12:58:04;;;;;;;3.85;2.15;;;;;;;;;;5030257;28;20029;-73
2021/06/28 13:00:30;;;;;;;3.35;2.10;;;;;;;;;;5031087;28;20025;-73
2021/06/28 13:03:00;;;;;;;7.07;2.00;;;;;;;;;;5030559;28;20025;-73
2021/06/28 13:05:30;;;;;;;3.25;1.95;;;;;;;;;;5030549;28;20116;-74
2021/06/28 13:08:13;;;;;;;4.30;2.13;;;;;;;;;;5027369;28;20027;-74
2021/06/28 13:10:38;;;;;;;7.72;2.40;;;;;;;;;;5025454;28;20022;-74
2021/06/28 13:13:35;;;;;;;5.93;2.10;;;;;;;;;;5030780;28;20036;-74
2021/06/28 13:16:08;;;;;;;3.65;1.98;;;;;;;;;;5008460;28;20486;-74
2021/06/28 13:18:34;;;;;;;3.70;2.00;;;;;;;;;;5009483;28;20150;-74
2021/06/28 13:21:06;;;;;;;4.32;2.13;;;;;;;;;;5009997;28;20041;-74
2021/06/28 13:23:31;;;;;;;3.55;2.05;;;;;;;;;;5006989;28;20438;-74
2021/06/28 13:25:56;;;;;;;4.90;2.13;;;;;;;;;;5009243;28;20021;-74
2021/06/28 13:28:22;;;;;;;3.75;2.10;;;;;;;;;;5009525;28;20105;-74
2021/06/28 13:30:57;;;;;;;3.40;2.13;;;;;;;;;;5009135;28;20014;-75
2021/06/28 13:33:22;;;;;;;4.10;2.10;;;;;;;;;;5008702;28;20038;-75
2021/06/28 13:35:48;;;;;;;3.83;2.10;;;;;;;;;;5008492;28;20076;-75
2021/06/28 13:38:16;;;;;;;3.90;2.15;;;;;;;;;;5009501;28;20033;-75
2021/06/28 13:40:44;;;;;;;5.53;2.30;;;;;;;;;;5012231;28;20537;-74
2021/06/28 13:43:16;;;;;;;6.93;2.40;;;;;;;;;;5012830;28;20061;-75
2021/06/28 13:45:42;;;;;;;5.93;2.42;;;;;;;;;;5012044;28;20177;-75
2021/06/28 13:48:10;;;;;;;3.80;2.25;;;;;;;;;;5012963;28;20427;-75
2021/06/28 13:50:37;;;;;;;5.78;2.70;;;;;;;;;;5017020;28;20466;-75
2021/06/28 13:53:13;;;;;;;3.78;2.33;;;;;;;;;;5023352;28;20033;-75
2021/06/28 13:55:39;;;;;;;4.35;2.50;;;;;;;;;;5034720;28;20045;-76
2021/06/28 13:58:06;;;;;;;4.75;2.30;;;;;;;;;;5035240;28;20024;-75
2021/06/28 14:00:49;;;;;;;4.18;2.20;;;;;;;;;;5035117;28;20021;-75
2021/06/28 14:03:15;;;;;;;3.22;1.98;;;;;;;;;;5034742;28;20025;-75
2021/06/28 14:05:41;;;;;;;3.72;2.17;;;;;;;;;;5034646;28;20034;-74
2021/06/28 14:08:07;;;;;;;4.63;2.22;;;;;;;;;;5034584;28;20382;-74
2021/06/28 14:10:33;;;;;;;5.03;2.60;;;;;;;;;;5025714;28;20029;-75
2021/06/28 14:12:59;;;;;;;6.45;2.38;;;;;;;;;;5034401;28;20509;-75
2021/06/28 14:15:25;;;;;;;5.28;2.70;;;;;;;;;;5034240;28;20029;-75
2021/06/28 14:17:50;;;;;;;4.93;2.45;;;;;;;;;;5033630;28;20033;-75
2021/06/28 14:20:17;;;;;;;5.57;2.80;;;;;;;;;;5034228;28;20050;-75
2021/06/28 14:22:43;;;;;;;4.88;2.75;;;;;;;;;;5034401;28;20104;-75
2021/06/28 14:25:10;;;;;;;5.20;2.67;;;;;;;;;;5035032;28;20459;-75
2021/06/28 14:27:36;;;;;;;7.00;2.70;;;;;;;;;;5033882;28;20030;-75
2021/06/28 14:30:02;;;;;;;5.47;3.22;;;;;;;;;;5034412;28;20025;-75
2021/06/28 14:32:28;;;;;;;8.38;2.90;;;;;;;;;;5034059;28;20521;-75
2021/06/28 14:34:54;;;;;;;4.70;2.85;;;;;;;;;;5033828;28;20026;-75
2021/06/28 14:37:19;;;;;;;4.60;2.70;;;;;;;;;;5033834;28;20049;-75
2021/06/28 14:39:44;;;;;;;5.57;3.13;;;;;;;;;;5034112;28;20021;-75
2021/06/28 14:42:10;;;;;;;6.07;3.20;;;;;;;;;;5033008;28;20043;-75